Flight Track Log - Related Links

Times and Time Zones

All times are in EDT time to prevent confusion due to time zone crossing. See the N942WC flight status page for this flight to view local times or setup timezone preferences in your user account.

Time Position Orientation Groundspeed Altitude Reporting Facility
EDT Latitude Longitude Course Direction KTS MPH feet Rate Location/Type
Thu 04:56:57 PM 33.8667 -84.3667 325° Northwest 229 264 3,300  Level Atlanta TRACON
Thu 04:58:16 PM 33.9378 -84.4269 352° North 295 339 6,900 2,547 Climbing Atlanta Center
Thu 04:59:16 PM 34.0169 -84.4397 16° North 284 327 9,200 2,000 Climbing Atlanta Center
Thu 05:00:16 PM 34.1025 -84.4100 17° North 296 341 10,900 1,983 Climbing Atlanta Center
Thu 05:01:17 PM 34.2069 -84.3703 17° North 329 379 13,200 2,800 Climbing Atlanta Center
Thu 05:02:16 PM 34.3031 -84.3356 16° North 350 403 16,500 2,750 Climbing Atlanta Center
Thu 05:03:17 PM 34.3908 -84.3056 18° North 340 391 18,700 1,600 Climbing Atlanta Center
Thu 05:04:16 PM 34.4850 -84.2681 27° Northeast 346 398 19,700 1,109 Climbing Atlanta Center
Thu 05:05:16 PM 34.5811 -84.2078 39° Northeast 361 415 20,900 1,550 Climbing Atlanta Center
Thu 05:06:16 PM 34.6625 -84.1272 36° Northeast 374 430 22,800 1,050 Climbing Atlanta Center
Thu 05:07:16 PM 34.7481 -84.0514 38° Northeast 374 430 23,000 100 Climbing Atlanta Center
Thu 05:08:16 PM 34.8397 -83.9628 38° Northeast 392 451 23,000  Level Atlanta Center
Thu 05:09:16 PM 34.9358 -83.8717 38° Northeast 412 474 23,000 -250 Level Atlanta Center
Thu 05:10:16 PM 35.0336 -83.7800 29° Northeast 426 490 22,500 -900 Descending Atlanta Center
Thu 05:11:16 PM 35.1419 -83.7061 22° Northeast 438 504 21,200 -1,200 Descending Atlanta Center
Thu 05:12:16 PM 35.2628 -83.6469 22° Northeast 448 516 20,100 -950 Descending Atlanta Center
Thu 05:13:16 PM 35.3817 -83.5878 24° Northeast 460 529 19,300 -550 Descending Atlanta Center
Thu 05:14:16 PM 35.5022 -83.5233 21° North 460 529 19,000 -150 Descending Atlanta Center
Thu 05:15:16 PM 35.6189 -83.4692 25° Northeast 454 522 19,000 -600 Level Atlanta Center
Thu 05:16:16 PM 35.7353 -83.4017 22° Northeast 454 522 17,800 -1,800 Descending Atlanta Center
Thu 05:17:16 PM 35.8497 -83.3444 45° Northeast 454 522 15,400 -2,450 Descending Atlanta Center
Thu 05:18:16 PM 35.9347 -83.2386 54° Northeast 434 499 12,900 -2,231 Descending Atlanta Center
Thu 05:19:17 PM 36.0069 -83.1172 55° Northeast 424 488 10,900 -1,100 Descending Atlanta Center
Thu 05:20:16 PM 36.0644 -83.0139 55° Northeast 395 455 10,700 -1,059 Descending Atlanta Center
Thu 05:21:16 PM 36.1158 -82.9233 58° Northeast 338 389 8,800 -2,150 Descending Atlanta Center
Thu 05:22:16 PM 36.1628 -82.8300 56° Northeast 317 365 6,400 -1,550 Descending Atlanta Center
Thu 05:23:16 PM 36.2017 -82.7575 47° Northeast 295 339 5,700 -1,000 Descending Atlanta Center
Thu 05:24:16 PM 36.2511 -82.6922 46° Northeast 270 311 4,400 -1,050 Descending Atlanta Center
Thu 05:25:16 PM 36.3025 -82.6269 51° Northeast 265 305 3,600 -400 Descending Atlanta Center
Thu 05:26:16 PM 36.3414 -82.5669 47° Northeast 236 272 3,600  Level Atlanta Center
Thu 05:27:16 PM 36.3764 -82.5200 41° Northeast 208 239 3,600 -250 Level Atlanta Center
Thu 05:28:16 PM 36.4133 -82.4806 41° Northeast 183 211 3,100 -500 Descending Atlanta Center

Login

Don't have an account? Register now (free) for customized features, flight alerts, and more!